createdAt,value
2022-11-21T00:01:52.667Z,11.15
2022-11-21T00:04:22.048Z,11.77
2022-11-21T00:06:52.940Z,11.85
2022-11-21T00:09:22.226Z,12.48
2022-11-21T00:11:53.289Z,12.88
2022-11-21T00:14:22.733Z,14.00
2022-11-21T00:16:57.150Z,12.95
2022-11-21T00:19:26.927Z,12.43
2022-11-21T00:21:55.941Z,16.08
2022-11-21T00:24:25.461Z,17.38
2022-11-21T00:26:54.785Z,13.35
2022-11-21T00:29:24.155Z,13.95
2022-11-21T00:31:55.132Z,13.55
2022-11-21T00:34:24.565Z,15.35
2022-11-21T00:36:53.627Z,14.57
2022-11-21T00:39:23.093Z,15.25
2022-11-21T00:41:52.161Z,13.73
2022-11-21T00:44:21.525Z,15.82
2022-11-21T00:46:50.656Z,14.93
2022-11-21T00:49:21.332Z,17.90
2022-11-21T00:51:50.362Z,17.70
2022-11-21T00:54:19.733Z,18.83
2022-11-21T00:56:48.879Z,15.35
2022-11-21T00:59:18.214Z,16.80
2022-11-21T01:01:47.508Z,13.70
2022-11-21T01:04:17.304Z,13.00
2022-11-21T01:06:47.903Z,13.15
2022-11-21T01:09:17.356Z,13.00
2022-11-21T01:11:46.511Z,13.38
2022-11-21T01:14:15.828Z,13.75
2022-11-21T01:16:44.850Z,12.10
2022-11-21T01:19:14.632Z,12.32
2022-11-21T01:21:43.648Z,14.07
2022-11-21T01:24:14.797Z,13.88
2022-11-21T01:26:43.867Z,13.20
2022-11-21T01:29:13.608Z,12.15
2022-11-21T01:31:42.822Z,10.90
2022-11-21T01:34:12.338Z,11.35
2022-11-21T01:36:41.978Z,11.13
2022-11-21T01:39:14.565Z,12.32
2022-11-21T01:41:45.945Z,12.32
2022-11-21T01:44:21.084Z,13.50
2022-11-21T01:46:51.383Z,10.10
2022-11-21T01:49:23.536Z,12.98
2022-11-21T01:51:56.749Z,12.52
2022-11-21T01:54:34.560Z,13.15
2022-11-21T01:57:08.329Z,12.85
2022-11-21T01:59:42.332Z,12.93
2022-11-21T02:02:13.810Z,13.38
2022-11-21T02:04:45.937Z,13.60
2022-11-21T02:07:17.229Z,12.82
2022-11-21T02:09:52.445Z,13.45
2022-11-21T02:12:28.168Z,13.80
2022-11-21T02:14:58.732Z,14.23
2022-11-21T02:17:30.276Z,14.25
2022-11-21T02:20:01.796Z,14.10
2022-11-21T02:22:41.678Z,16.92
2022-11-21T02:25:16.505Z,16.08
2022-11-21T02:27:46.484Z,15.68
2022-11-21T02:30:16.341Z,16.48
2022-11-21T02:32:47.880Z,16.33
2022-11-21T02:35:20.366Z,14.93
2022-11-21T02:37:53.741Z,16.75
2022-11-21T02:40:28.440Z,15.88
2022-11-21T02:43:03.551Z,14.98
2022-11-21T02:45:37.048Z,16.63
2022-11-21T02:48:06.790Z,16.40
2022-11-21T02:50:37.814Z,17.55
2022-11-21T02:53:08.857Z,17.10
2022-11-21T02:55:40.154Z,16.15
2022-11-21T02:58:09.563Z,16.75
2022-11-21T03:00:41.219Z,18.75
2022-11-21T03:03:10.667Z,17.17
2022-11-21T03:05:41.588Z,15.85
2022-11-21T03:08:11.460Z,15.75
2022-11-21T03:10:42.152Z,14.05
2022-11-21T03:13:11.175Z,15.35
2022-11-21T03:15:40.592Z,16.10
2022-11-21T03:18:09.576Z,14.88
2022-11-21T03:20:38.992Z,14.65
2022-11-21T03:23:08.134Z,15.50
2022-11-21T03:25:37.485Z,15.55
2022-11-21T03:28:07.985Z,15.15
2022-11-21T03:36:01.473Z,13.82
2022-11-21T03:38:30.786Z,14.70
2022-11-21T03:41:04.383Z,14.13
2022-11-21T03:43:35.485Z,12.60
2022-11-21T03:46:04.540Z,13.85
2022-11-21T03:48:33.957Z,13.82
2022-11-21T03:51:02.991Z,14.13
2022-11-21T03:53:32.230Z,14.27
2022-11-21T03:56:01.367Z,15.77
2022-11-21T03:58:30.714Z,16.10
2022-11-21T04:01:01.210Z,13.77
2022-11-21T04:03:30.757Z,13.15
2022-11-21T04:05:59.867Z,13.98
2022-11-21T04:08:29.356Z,14.35
2022-11-21T04:10:58.350Z,13.10
2022-11-21T04:13:27.618Z,12.75
2022-11-21T04:15:56.886Z,12.10
2022-11-21T04:18:27.897Z,14.20
2022-11-21T04:20:59.111Z,14.93
2022-11-21T04:23:29.282Z,13.25
2022-11-21T04:25:58.579Z,13.75
2022-11-21T04:28:28.437Z,13.82
2022-11-21T04:31:00.560Z,12.07
2022-11-21T04:33:31.471Z,13.35
2022-11-21T04:36:00.780Z,14.00
2022-11-21T04:38:30.051Z,14.32
2022-11-21T04:40:59.192Z,14.27
2022-11-21T04:43:28.505Z,14.77
2022-11-21T04:45:57.551Z,13.13
2022-11-21T04:48:26.968Z,14.80
2022-11-21T04:50:57.373Z,13.23
2022-11-21T04:53:26.802Z,13.75
2022-11-21T04:55:56.129Z,13.55
2022-11-21T04:58:25.516Z,13.93
2022-11-21T05:00:54.719Z,14.50
2022-11-21T05:03:24.268Z,13.23
2022-11-21T05:05:53.293Z,13.45
2022-11-21T05:08:24.257Z,14.43
2022-11-21T05:11:10.432Z,13.57
2022-11-21T05:13:39.824Z,13.07
2022-11-21T05:16:08.898Z,14.15
2022-11-21T05:18:38.205Z,13.88
2022-11-21T05:21:07.342Z,13.85
2022-11-21T05:23:38.044Z,15.30
2022-11-21T05:26:07.194Z,16.45
2022-11-21T05:28:36.563Z,14.13
2022-11-21T05:31:05.765Z,13.40
2022-11-21T05:33:35.127Z,15.35
2022-11-21T05:36:04.572Z,13.57
2022-11-21T05:38:33.964Z,13.38
2022-11-21T05:41:04.431Z,12.70
2022-11-21T05:43:50.109Z,14.95
2022-11-21T05:46:20.679Z,11.63
2022-11-21T05:48:51.449Z,13.55
2022-11-21T05:51:21.295Z,14.38
2022-11-21T05:53:50.839Z,18.23
2022-11-21T05:56:21.904Z,16.52
2022-11-21T05:58:51.501Z,14.25
2022-11-21T06:01:41.424Z,15.00
2022-11-21T06:04:10.583Z,14.57
2022-11-21T06:06:39.824Z,16.02
2022-11-21T06:09:09.213Z,18.08
2022-11-21T06:11:39.747Z,15.80
2022-11-21T06:14:09.102Z,18.52
2022-11-21T06:16:38.201Z,17.42
2022-11-21T06:19:07.656Z,15.63
2022-11-21T06:21:37.391Z,15.15
2022-11-21T06:24:08.003Z,17.48
2022-11-21T06:26:38.423Z,17.65
2022-11-21T06:29:08.431Z,17.02
2022-11-21T06:31:37.877Z,16.45
2022-11-21T06:34:07.165Z,16.17
2022-11-21T06:36:36.952Z,15.73
2022-11-21T06:39:06.623Z,14.35
2022-11-21T06:41:36.130Z,15.05
2022-11-21T06:44:07.163Z,16.48
2022-11-21T06:46:36.314Z,15.90
2022-11-21T06:49:05.881Z,15.57
2022-11-21T06:51:34.926Z,18.40
2022-11-21T06:54:04.569Z,14.73
2022-11-21T06:56:34.023Z,13.20
2022-11-21T06:59:03.505Z,15.52
2022-11-21T07:01:33.914Z,15.63
2022-11-21T07:04:03.416Z,14.30
2022-11-21T07:06:32.542Z,15.85
2022-11-21T07:11:51.066Z,19.90
2022-11-21T07:14:19.394Z,15.30
2022-11-21T07:16:49.885Z,15.73
2022-11-21T07:19:19.407Z,19.60
2022-11-21T07:21:48.690Z,14.52
2022-11-21T07:24:18.193Z,15.48
2022-11-21T07:26:47.175Z,17.65
2022-11-21T07:29:16.514Z,17.45
2022-11-21T07:31:45.605Z,16.55
2022-11-21T07:34:16.355Z,16.75
2022-11-21T07:36:45.693Z,15.18
2022-11-21T07:39:15.208Z,14.48
2022-11-21T07:41:44.424Z,14.15
2022-11-21T07:44:13.764Z,14.05
2022-11-21T07:46:42.818Z,15.35
2022-11-21T07:49:12.208Z,17.65
2022-11-21T07:51:42.566Z,19.60
2022-11-21T07:54:12.074Z,19.65
2022-11-21T07:56:41.056Z,22.95
2022-11-21T07:59:10.515Z,20.75
2022-11-21T08:01:44.997Z,17.52
2022-11-21T08:04:14.851Z,19.70
2022-11-21T08:06:45.510Z,18.02
2022-11-21T08:09:15.031Z,15.27
2022-11-21T08:11:44.088Z,16.73
2022-11-21T08:14:13.507Z,17.88
2022-11-21T08:16:42.603Z,17.38
2022-11-21T08:19:11.991Z,17.85
2022-11-21T08:21:41.041Z,16.45
2022-11-21T08:24:14.719Z,17.10
2022-11-21T08:26:43.944Z,18.52
2022-11-21T08:29:15.380Z,17.98
2022-11-21T08:31:45.322Z,19.20
2022-11-21T08:34:14.974Z,19.85
2022-11-21T08:36:43.965Z,19.65
2022-11-21T08:39:14.819Z,18.15
2022-11-21T08:42:01.320Z,17.48
2022-11-21T08:44:31.132Z,22.00
2022-11-21T08:47:00.417Z,19.33
2022-11-21T08:49:30.255Z,18.67
2022-11-21T08:51:59.266Z,20.95
2022-11-21T08:54:30.295Z,21.75
2022-11-21T08:56:59.663Z,22.45
2022-11-21T08:59:28.979Z,22.35
2022-11-21T09:01:58.011Z,22.65
2022-11-21T09:04:27.547Z,24.48
2022-11-21T09:06:56.770Z,25.52
2022-11-21T09:09:26.056Z,24.27
2022-11-21T09:11:56.631Z,26.48
2022-11-21T09:14:43.421Z,27.98
2022-11-21T09:17:32.459Z,28.30
2022-11-21T09:20:01.821Z,27.73
2022-11-21T09:22:30.997Z,27.00
2022-11-21T09:25:00.343Z,30.45
2022-11-21T09:27:31.450Z,29.38
2022-11-21T09:30:00.754Z,30.00
2022-11-21T09:32:29.894Z,31.67
2022-11-21T09:34:59.228Z,29.17
2022-11-21T09:37:28.248Z,30.70
2022-11-21T09:39:57.668Z,31.77
2022-11-21T09:42:49.181Z,35.28
2022-11-21T09:45:24.468Z,33.33
2022-11-21T09:47:54.479Z,33.78
2022-11-21T09:50:30.610Z,33.72
2022-11-21T09:53:04.815Z,34.50
2022-11-21T09:55:43.831Z,35.83
2022-11-21T09:58:26.605Z,36.85
2022-11-21T10:00:56.296Z,36.78
2022-11-21T10:03:30.341Z,37.75
2022-11-21T10:06:04.048Z,35.17
2022-11-21T10:08:42.844Z,37.42
2022-11-21T10:11:20.821Z,37.17
2022-11-21T10:14:07.027Z,34.75
2022-11-21T10:16:45.740Z,33.67
2022-11-21T10:19:48.794Z,32.00
2022-11-21T10:22:51.447Z,33.58
2022-11-21T10:25:27.452Z,34.72
2022-11-21T10:28:03.090Z,34.60
2022-11-21T10:30:34.701Z,36.67
2022-11-21T10:33:05.938Z,38.28
2022-11-21T10:35:42.222Z,39.67
2022-11-21T10:38:22.524Z,40.33
2022-11-21T10:40:56.187Z,40.58
2022-11-21T10:43:51.505Z,38.00
2022-11-21T10:46:22.108Z,40.10
2022-11-21T10:48:58.305Z,44.63
2022-11-21T10:51:43.735Z,45.63
2022-11-21T10:54:32.412Z,40.80
2022-11-21T10:57:07.393Z,46.08
2022-11-21T10:59:36.692Z,45.92
2022-11-21T11:02:25.620Z,45.45
2022-11-21T11:05:20.590Z,40.50
2022-11-21T11:08:03.012Z,39.45
2022-11-21T11:10:33.933Z,40.22
2022-11-21T11:16:18.537Z,41.38
2022-11-21T11:18:57.334Z,41.97
2022-11-21T11:21:28.761Z,43.67
2022-11-21T11:24:21.246Z,42.92
2022-11-21T11:26:58.310Z,43.95
2022-11-21T11:29:30.444Z,43.03
2022-11-21T11:32:04.386Z,43.63
2022-11-21T11:34:42.234Z,41.80
2022-11-21T11:37:18.375Z,40.97
2022-11-21T11:39:55.417Z,41.25
2022-11-21T11:43:04.363Z,44.38
2022-11-21T11:46:06.430Z,44.72
2022-11-21T11:48:56.500Z,43.70
2022-11-21T11:51:36.187Z,44.72
2022-11-21T11:54:13.681Z,46.72
2022-11-21T11:56:47.211Z,47.75
2022-11-21T11:59:21.584Z,44.83
2022-11-21T12:01:57.082Z,43.92
2022-11-21T12:04:31.253Z,42.42
2022-11-21T12:10:02.541Z,42.57
2022-11-21T12:12:37.784Z,42.85
2022-11-21T12:18:13.742Z,41.65
2022-11-21T12:20:54.017Z,42.92
2022-11-21T12:23:26.247Z,45.00
2022-11-21T12:26:05.009Z,42.25
2022-11-21T12:28:47.290Z,40.83
2022-11-21T12:31:23.117Z,40.53
2022-11-21T12:33:58.004Z,40.67
2022-11-21T12:36:35.162Z,47.05
2022-11-21T12:39:36.748Z,42.78
2022-11-21T12:42:30.888Z,42.15
2022-11-21T12:45:19.508Z,40.65
2022-11-21T12:48:30.513Z,40.65
2022-11-21T12:51:34.725Z,44.42
2022-11-21T12:54:33.360Z,41.65
2022-11-21T12:57:11.505Z,41.33
2022-11-21T13:00:04.057Z,43.22
2022-11-21T13:02:47.314Z,39.20
2022-11-21T13:05:26.010Z,43.03
2022-11-21T13:08:00.487Z,42.90
2022-11-21T13:10:30.665Z,42.10
2022-11-21T13:13:06.721Z,43.63
2022-11-21T13:15:44.651Z,39.85
2022-11-21T13:18:21.624Z,42.00
2022-11-21T13:20:52.727Z,40.67
2022-11-21T13:23:38.380Z,42.10
2022-11-21T13:26:41.032Z,40.28
2022-11-21T13:29:12.547Z,44.95
2022-11-21T13:31:42.221Z,41.42
2022-11-21T13:34:38.876Z,43.88
2022-11-21T13:37:08.281Z,44.80
2022-11-21T13:39:39.124Z,44.45
2022-11-21T13:42:33.099Z,43.30
2022-11-21T13:45:38.963Z,45.72
2022-11-21T13:48:42.639Z,44.60
2022-11-21T13:51:23.797Z,42.20
2022-11-21T13:54:28.804Z,46.30
2022-11-21T13:57:22.367Z,51.15
2022-11-21T14:00:31.495Z,52.15
2022-11-21T14:03:36.783Z,54.05
2022-11-21T14:06:32.599Z,47.17
2022-11-21T14:09:39.350Z,46.92
2022-11-21T14:12:22.472Z,48.38
2022-11-21T14:14:56.107Z,47.85
2022-11-21T14:17:36.465Z,43.97
2022-11-21T14:20:16.277Z,45.35
2022-11-21T14:22:54.116Z,48.33
2022-11-21T14:25:27.657Z,44.78
2022-11-21T14:27:58.119Z,46.88
2022-11-21T14:30:35.790Z,47.97
2022-11-21T14:33:26.163Z,46.67
2022-11-21T14:35:58.861Z,46.85
2022-11-21T14:38:30.554Z,46.15
2022-11-21T14:41:25.981Z,52.97
2022-11-21T14:44:17.197Z,50.10
2022-11-21T14:46:47.734Z,48.13
2022-11-21T14:49:26.811Z,47.33
2022-11-21T14:52:02.871Z,52.72
2022-11-21T14:54:34.685Z,53.10
2022-11-21T14:57:07.758Z,58.30
2022-11-21T14:59:41.618Z,51.45
2022-11-21T15:02:17.064Z,49.30
2022-11-21T15:04:49.940Z,46.88
2022-11-21T15:07:30.156Z,45.60
2022-11-21T15:10:27.270Z,43.35
2022-11-21T15:12:59.940Z,43.17
2022-11-21T15:15:34.264Z,47.05
2022-11-21T15:20:59.567Z,46.33
2022-11-21T15:23:30.670Z,47.40
2022-11-21T15:26:01.704Z,45.83
2022-11-21T15:28:31.723Z,47.95
2022-11-21T15:31:18.072Z,45.08
2022-11-21T15:37:05.731Z,46.90
2022-11-21T15:39:35.998Z,40.95
2022-11-21T15:42:37.329Z,45.50
2022-11-21T15:45:25.535Z,43.05
2022-11-21T15:47:56.789Z,46.22
2022-11-21T15:50:26.754Z,44.13
2022-11-21T15:52:57.508Z,45.15
2022-11-21T15:55:29.478Z,49.15
2022-11-21T15:57:59.026Z,43.13
2022-11-21T16:00:28.159Z,43.25
2022-11-21T16:02:57.669Z,43.10
2022-11-21T16:05:26.873Z,46.63
2022-11-21T16:07:57.553Z,43.55
2022-11-21T16:10:28.132Z,42.40
2022-11-21T16:12:57.762Z,39.47
2022-11-21T16:15:26.897Z,37.67
2022-11-21T16:17:56.217Z,39.20
2022-11-21T16:20:25.220Z,39.72
2022-11-21T16:22:54.692Z,43.72
2022-11-21T16:25:25.247Z,47.70
2022-11-21T16:27:54.607Z,48.28
2022-11-21T16:30:23.679Z,45.17
2022-11-21T16:32:55.559Z,42.65
2022-11-21T16:35:25.180Z,38.97
2022-11-21T16:37:54.529Z,63.72
2022-11-21T16:40:25.216Z,104.75
2022-11-21T16:43:07.559Z,84.35
2022-11-21T16:45:36.749Z,41.65
2022-11-21T16:48:06.916Z,53.63
2022-11-21T16:50:36.231Z,50.28
2022-11-21T16:53:05.663Z,49.30
2022-11-21T16:55:36.225Z,41.78
2022-11-21T16:58:06.059Z,41.75
2022-11-21T17:00:35.087Z,41.58
2022-11-21T17:03:04.887Z,42.70
2022-11-21T17:05:33.963Z,47.83
2022-11-21T17:08:03.267Z,45.65
2022-11-21T17:10:34.077Z,45.55
2022-11-21T17:13:05.116Z,42.55
2022-11-21T17:15:34.209Z,89.32
2022-11-21T17:18:03.810Z,62.67
2022-11-21T17:20:32.886Z,52.30
2022-11-21T17:23:02.831Z,48.25
2022-11-21T17:25:33.772Z,48.47
2022-11-21T17:28:06.068Z,45.50
2022-11-21T17:30:35.466Z,59.95
2022-11-21T17:33:04.865Z,46.58
2022-11-21T17:35:33.954Z,44.75
2022-11-21T17:38:03.416Z,45.65
2022-11-21T17:40:32.472Z,42.55
2022-11-21T17:43:01.873Z,50.17
2022-11-21T17:45:32.245Z,45.38
2022-11-21T17:48:01.692Z,44.63
2022-11-21T17:50:30.792Z,47.72
2022-11-21T17:53:00.316Z,56.22
2022-11-21T17:55:29.477Z,52.67
2022-11-21T17:57:59.422Z,67.55
2022-11-21T18:00:28.437Z,55.63
2022-11-21T18:03:00.032Z,50.08
2022-11-21T18:05:30.578Z,44.85
2022-11-21T18:07:59.984Z,45.17
2022-11-21T18:10:42.702Z,44.15
2022-11-21T18:13:13.292Z,45.85
2022-11-21T18:15:42.443Z,48.55
2022-11-21T18:18:13.301Z,42.03
2022-11-21T18:20:42.345Z,45.53
2022-11-21T18:23:11.868Z,42.95
2022-11-21T18:25:41.292Z,45.80
2022-11-21T18:28:10.757Z,47.70
2022-11-21T18:30:39.952Z,50.00
2022-11-21T18:33:10.167Z,51.22
2022-11-21T18:35:44.246Z,49.95
2022-11-21T18:38:40.311Z,48.22
2022-11-21T18:41:06.853Z,48.78
2022-11-21T18:43:36.652Z,46.35
2022-11-21T18:46:06.492Z,41.92
2022-11-21T18:49:00.702Z,42.38
2022-11-21T18:51:28.885Z,44.47
2022-11-21T18:53:59.498Z,46.28
2022-11-21T18:56:29.292Z,47.83
2022-11-21T18:58:59.268Z,47.13
2022-11-21T19:01:30.255Z,44.33
2022-11-21T19:03:59.858Z,44.58
2022-11-21T19:06:30.864Z,45.70
2022-11-21T19:09:00.591Z,47.13
2022-11-21T19:11:31.121Z,47.55
2022-11-21T19:14:01.543Z,44.05
2022-11-21T19:16:34.634Z,46.13
2022-11-21T19:21:58.413Z,46.33
2022-11-21T19:24:27.759Z,44.72
2022-11-21T19:26:57.300Z,43.63
2022-11-21T19:29:26.946Z,45.83
2022-11-21T19:31:56.740Z,48.08
2022-11-21T19:34:26.359Z,49.72
2022-11-21T19:36:55.586Z,48.05
2022-11-21T19:39:26.721Z,48.03
2022-11-21T19:41:56.309Z,44.42
2022-11-21T19:44:25.717Z,44.90
2022-11-21T19:46:54.782Z,43.55
2022-11-21T19:49:24.297Z,43.97
2022-11-21T19:51:53.299Z,41.28
2022-11-21T19:54:22.888Z,46.67
2022-11-21T19:56:53.429Z,44.42
2022-11-21T19:59:23.144Z,41.60
2022-11-21T20:01:53.109Z,42.95
2022-11-21T20:04:22.720Z,42.63
2022-11-21T20:06:51.830Z,42.17
2022-11-21T20:09:22.922Z,44.60
2022-11-21T20:11:54.568Z,47.10
2022-11-21T20:14:24.227Z,47.30
2022-11-21T20:16:54.085Z,47.35
2022-11-21T20:19:26.907Z,45.75
2022-11-21T20:21:56.832Z,41.35
2022-11-21T20:24:26.333Z,43.60
2022-11-21T20:26:56.798Z,41.30
2022-11-21T20:29:26.199Z,38.85
2022-11-21T20:31:59.133Z,43.17
2022-11-21T20:34:28.730Z,38.88
2022-11-21T20:36:59.733Z,38.38
2022-11-21T20:39:32.199Z,40.63
2022-11-21T20:42:02.865Z,41.08
2022-11-21T20:45:25.778Z,40.38
2022-11-21T20:47:21.333Z,40.10
2022-11-21T20:49:50.737Z,40.15
2022-11-21T20:55:10.033Z,42.38
2022-11-21T20:57:40.786Z,40.05
2022-11-21T21:00:12.692Z,41.67
2022-11-21T21:02:41.843Z,41.70
2022-11-21T21:05:11.531Z,44.15
2022-11-21T21:07:40.670Z,41.90
2022-11-21T21:10:11.539Z,44.70
2022-11-21T21:12:48.394Z,46.10
2022-11-21T21:15:18.521Z,45.95
2022-11-21T21:17:47.601Z,48.03
2022-11-21T21:20:19.725Z,44.58
2022-11-21T21:22:48.994Z,43.92
2022-11-21T21:25:18.494Z,45.67
2022-11-21T21:27:51.408Z,45.38
2022-11-21T21:30:21.498Z,44.78
2022-11-21T21:32:50.703Z,49.03
2022-11-21T21:35:20.368Z,48.38
2022-11-21T21:37:49.520Z,48.85
2022-11-21T21:40:18.977Z,43.95
2022-11-21T21:42:49.636Z,45.30
2022-11-21T21:45:19.032Z,52.17
2022-11-21T21:47:48.009Z,51.63
2022-11-21T21:50:17.542Z,45.60
2022-11-21T21:52:46.657Z,49.80
2022-11-21T21:55:16.237Z,51.25
2022-11-21T21:57:51.071Z,44.45
2022-11-21T22:00:23.161Z,48.42
2022-11-21T22:02:52.247Z,55.00
2022-11-21T22:05:21.687Z,51.08
2022-11-21T22:07:50.864Z,59.45
2022-11-21T22:10:20.447Z,53.17
2022-11-21T22:12:49.830Z,44.38
2022-11-21T22:15:19.301Z,42.90
2022-11-21T22:17:49.769Z,42.65
2022-11-21T22:20:19.174Z,42.17
2022-11-21T22:22:48.236Z,46.08
2022-11-21T22:25:17.616Z,44.92
2022-11-21T22:27:46.778Z,42.47
2022-11-21T22:30:16.564Z,44.20
2022-11-21T22:32:45.856Z,41.17
2022-11-21T22:35:16.953Z,38.65
2022-11-21T22:37:45.947Z,41.38
2022-11-21T22:40:15.800Z,44.17
2022-11-21T22:42:44.974Z,40.45
2022-11-21T22:45:14.409Z,43.25
2022-11-21T22:47:47.795Z,42.35
2022-11-21T22:50:19.112Z,43.67
2022-11-21T22:52:48.345Z,43.25
2022-11-21T22:55:17.851Z,41.22
2022-11-21T22:57:47.056Z,46.35
2022-11-21T23:00:18.078Z,46.22
2022-11-21T23:02:47.167Z,50.28
2022-11-21T23:05:18.045Z,45.35
2022-11-21T23:07:47.358Z,43.80
2022-11-21T23:10:17.074Z,44.88
2022-11-21T23:12:46.162Z,44.53
2022-11-21T23:15:15.727Z,45.15
2022-11-21T23:17:49.566Z,42.33
2022-11-21T23:20:22.955Z,44.13
2022-11-21T23:22:52.031Z,46.33
2022-11-21T23:25:21.385Z,46.72
2022-11-21T23:27:50.432Z,61.38
2022-11-21T23:30:19.974Z,53.95
2022-11-21T23:32:49.642Z,50.03
2022-11-21T23:35:19.121Z,47.45
2022-11-21T23:37:49.587Z,46.25
2022-11-21T23:40:19.014Z,42.03
2022-11-21T23:42:48.074Z,45.38
2022-11-21T23:45:17.764Z,46.65
2022-11-21T23:47:46.898Z,48.47
2022-11-21T23:50:16.810Z,44.92
2022-11-21T23:52:46.004Z,49.42
2022-11-21T23:55:17.461Z,48.15
2022-11-21T23:57:49.099Z,48.45
